Strona główna
METAR-TAF:

METAR-TAF

Lotnisko :

Geilenkirchen, Niemcy

Szerokość geograficzna: 50-57-39N, Długość geograficzna: 006-2-33E, wysokość: 90 m

METAR: brakujący

czas: 02:50 (00:50 UTC)

Prognoza

Raport powstał 10 godziny i 50 minut temu, godzina 14:00 UTC
Prognoza ważna od 03 godzina 15 UTC do 04 godzina 06 UTC
Wiatr 10 kt od zachód w porywach dochodzący do 17 kt
Widzialność 10 km lub więcej
Przerywane chmury na wysokości 4000 ft
Stopniowe zmiany
od 03 godzina 17 UTC do 03 godzina 19 UTC
Wiatr 6 kt od zachodnio-północny zachód

TAF: ETNG 031400Z 0315/0406 27010G17KT 9999 BKN040 BECMG 0317/0319 30006KT

Obserwacja i prognoza pogody dla ponad 4000 lotnisk (raport METAR i TAF).

Dostępne stacje oznaczono żółtymi i czerwonymi punktami na mapie.

Najedź kursorem aby zobaczyć nazwę stacji.

Kliknij aby zobaczyć obserwacje i prognozy pogody.

Aby zmienić mapę: kliknij na zielony przycisk z czarnym krzyżykiem, aby powiększyć; na zielony przycisk z myślnikiem, aby pomniejszyć; na zielone strzałki, aby przejść do map sąsiednich.


METAR-TAF: